Time;durP1;ratioP1;P1;durP2;ratioP2;P2;SDS_P1;SDS_P2;PMS_P1;PMS_P2;Temp;Humidity;BMP_temperature;BMP_pressure;BME280_temperature;BME280_humidity;BME280_pressure;Samples;Min_cycle;Max_cycle;Signal;HPM_P1;HPM_P2
2021/09/04 00:01:47;;;;;;;10.52;6.75;;;14.80;76.40;;;13.78;77.39;96131.66;4965378;28;20078;-67
2021/09/04 00:04:13;;;;;;;7.85;6.13;;;14.80;76.50;;;13.80;77.29;96139.38;4950717;28;20046;-67
2021/09/04 00:06:39;;;;;;;8.98;6.60;;;14.80;76.40;;;13.78;77.02;96131.66;4960420;28;20098;-67
2021/09/04 00:09:04;;;;;;;9.27;6.65;;;14.80;76.50;;;13.77;77.34;96126.56;4942528;28;20431;-67
2021/09/04 00:11:31;;;;;;;9.15;7.00;;;14.70;76.70;;;13.70;77.48;96120.50;4968568;28;20578;-67
2021/09/04 00:13:57;;;;;;;8.85;6.43;;;14.70;76.90;;;13.71;76.68;96124.78;4959647;28;20042;-67
2021/09/04 00:16:23;;;;;;;10.75;7.38;;;14.70;76.80;;;13.69;76.86;96126.81;4969718;28;20035;-68
2021/09/04 00:18:49;;;;;;;8.48;6.70;;;14.70;76.90;;;13.66;77.61;96128.03;4937341;28;20040;-67
2021/09/04 00:21:14;;;;;;;8.18;6.85;;;14.60;76.90;;;13.68;77.46;96125.19;4969842;28;20036;-67
2021/09/04 00:23:40;;;;;;;10.25;6.80;;;14.70;76.80;;;13.64;77.11;96116.88;4966138;28;20414;-68
2021/09/04 00:26:06;;;;;;;8.07;6.95;;;14.70;76.70;;;13.63;77.43;96123.19;4952785;28;20058;-67
2021/09/04 00:28:31;;;;;;;9.20;7.00;;;14.60;76.70;;;13.60;77.60;96118.31;4953510;28;20471;-69
2021/09/04 00:30:57;;;;;;;9.45;6.72;;;14.60;76.50;;;13.58;77.31;96119.50;4954707;28;20454;-66
2021/09/04 00:33:23;;;;;;;10.48;6.88;;;14.60;76.40;;;13.51;76.80;96110.78;4965501;28;20058;-65
2021/09/04 00:35:49;;;;;;;10.65;8.35;;;14.60;76.30;;;13.53;77.03;96120.13;4971821;28;20166;-65
2021/09/04 00:38:14;;;;;;;9.55;8.30;;;14.60;76.50;;;13.51;76.80;96118.72;4971421;28;20534;-65
2021/09/04 00:40:40;;;;;;;10.05;8.30;;;14.60;76.50;;;13.45;77.79;96121.19;4953235;28;20043;-66
2021/09/04 00:43:06;;;;;;;10.73;8.65;;;14.60;76.50;;;13.44;77.37;96118.75;4971514;28;20075;-66
2021/09/04 00:45:32;;;;;;;10.52;8.63;;;14.50;76.60;;;13.42;77.51;96121.59;4972749;28;20086;-66
2021/09/04 00:48:05;;;;;;;12.38;8.93;;;14.40;76.70;;;13.40;78.31;96122.81;4956119;28;20054;-66
2021/09/04 00:50:33;;;;;;;11.80;10.52;;;14.50;76.60;;;13.35;77.08;96112.88;4937513;28;20126;-66
2021/09/04 00:52:59;;;;;;;12.88;10.98;;;14.40;76.90;;;13.31;78.10;96111.63;4933981;29;20032;-66
2021/09/04 00:55:25;;;;;;;13.60;11.98;;;14.30;77.30;;;13.28;77.57;96119.97;4963497;28;20078;-66
2021/09/04 00:57:51;;;;;;;13.55;10.43;;;14.30;77.60;;;13.27;77.84;96118.34;4971618;28;20035;-65
2021/09/04 01:00:16;;;;;;;11.95;9.98;;;14.40;77.70;;;13.26;78.77;96116.72;4972492;28;20450;-66
2021/09/04 01:02:42;;;;;;;10.98;8.38;;;14.30;77.90;;;13.24;78.67;96124.03;4955377;28;20114;-66
2021/09/04 01:05:08;;;;;;;10.50;8.43;;;14.20;77.80;;;13.22;78.95;96120.81;4971794;28;20121;-66
2021/09/04 01:07:34;;;;;;;11.25;7.55;;;14.30;77.70;;;13.20;78.94;96129.94;4976553;28;20126;-66
2021/09/04 01:10:01;;;;;;;9.38;7.90;;;14.30;77.50;;;13.17;78.89;96123.22;4965573;28;20061;-66
2021/09/04 01:12:26;;;;;;;11.10;8.43;;;14.20;77.50;;;13.16;77.93;96132.16;4971679;28;20375;-65
2021/09/04 01:14:52;;;;;;;9.02;7.47;;;14.20;77.70;;;13.14;78.71;96126.28;4947219;29;20077;-66
2021/09/04 01:17:18;;;;;;;9.88;7.43;;;14.20;77.60;;;13.11;78.83;96121.38;4952395;29;20402;-66
2021/09/04 01:19:44;;;;;;;8.90;7.53;;;14.20;77.50;;;13.10;78.70;96128.47;4928218;28;20439;-66
2021/09/04 01:22:09;;;;;;;9.13;7.40;;;14.20;77.60;;;13.08;78.72;96121.78;4970401;28;20076;-67
2021/09/04 01:24:35;;;;;;;10.13;8.00;;;14.10;77.70;;;13.06;78.40;96123.81;4944614;28;20126;-66
2021/09/04 01:27:01;;;;;;;7.85;6.88;;;14.10;77.60;;;13.01;78.58;96115.69;4977775;28;20511;-67
2021/09/04 01:29:26;;;;;;;11.15;7.70;;;14.10;77.40;;;12.99;77.97;96117.72;4949796;28;20558;-67
2021/09/04 01:31:52;;;;;;;9.63;7.75;;;14.00;77.50;;;12.97;78.72;96111.84;4971148;28;20494;-67
2021/09/04 01:34:18;;;;;;;10.45;7.45;;;14.00;77.40;;;12.94;77.98;96106.97;4967614;28;20038;-67
2021/09/04 01:36:44;;;;;;;9.77;7.70;;;14.00;77.40;;;12.90;78.78;96111.84;4936496;28;20041;-67
2021/09/04 01:39:10;;;;;;;9.30;8.30;;;14.00;77.40;;;12.84;78.04;96107.38;4937506;29;20049;-67
2021/09/04 01:41:37;;;;;;;9.35;8.05;;;13.90;77.30;;;12.79;78.22;96105.34;4952133;29;20494;-67
2021/09/04 01:44:04;;;;;;;10.63;7.68;;;13.80;77.20;;;12.72;78.67;96093.97;4967425;28;20046;-67
2021/09/04 01:46:30;;;;;;;12.75;7.68;;;13.80;77.20;;;12.74;78.23;96107.78;4955138;28;20443;-66
2021/09/04 01:48:57;;;;;;;8.95;7.47;;;13.80;76.90;;;12.69;78.03;96110.22;4971010;28;20042;-67
2021/09/04 01:51:23;;;;;;;8.85;6.53;;;13.80;76.90;;;12.64;77.72;96099.44;4936025;28;20042;-67
2021/09/04 01:53:49;;;;;;;8.75;7.32;;;13.70;76.90;;;12.64;78.09;96102.06;4949164;28;20031;-67
2021/09/04 01:56:15;;;;;;;9.73;7.18;;;13.70;76.90;;;12.62;78.13;96103.28;4959131;28;20504;-67
2021/09/04 01:58:41;;;;;;;8.63;6.57;;;13.70;77.20;;;12.61;78.13;96106.94;4965248;28;20545;-67
2021/09/04 02:01:07;;;;;;;8.90;7.03;;;13.70;77.10;;;12.56;78.79;96095.16;4964220;28;20059;-67
2021/09/04 02:03:34;;;;;;;9.02;7.00;;;13.70;77.40;;;12.54;78.22;96112.22;4944821;28;20373;-66
2021/09/04 02:06:01;;;;;;;7.90;6.75;;;13.60;77.70;;;12.49;78.70;96104.09;4951466;28;20526;-67
2021/09/04 02:08:26;;;;;;;8.77;7.35;;;13.60;78.10;;;12.45;78.96;96098.41;4952497;28;20491;-67
2021/09/04 02:10:52;;;;;;;10.70;7.35;;;13.50;78.20;;;12.43;79.24;96100.41;4951712;28;20163;-67
2021/09/04 02:13:18;;;;;;;8.85;6.28;;;13.50;78.30;;;12.41;79.74;96096.34;4961103;28;20188;-67
2021/09/04 02:15:44;;;;;;;9.40;7.65;;;13.50;78.20;;;12.40;79.76;96100.81;4970759;28;20129;-67
2021/09/04 02:18:09;;;;;;;11.00;7.20;;;13.60;78.10;;;12.39;79.54;96098.38;4967626;28;20034;-67
2021/09/04 02:20:35;;;;;;;11.65;7.22;;;13.50;78.00;;;12.37;78.87;96108.31;4951600;28;20027;-67
2021/09/04 02:23:01;;;;;;;8.65;7.60;;;13.50;78.00;;;12.36;79.41;96102.22;4946271;28;20149;-67
2021/09/04 02:25:26;;;;;;;9.85;7.18;;;13.50;78.20;;;12.35;79.39;96097.97;4975208;23;20062;-64
2021/09/04 02:27:52;;;;;;;10.20;6.97;;;13.50;78.10;;;12.36;79.11;96098.78;4947223;28;20050;-64
2021/09/04 02:30:18;;;;;;;8.32;7.30;;;13.50;77.80;;;12.33;78.97;96102.63;4947235;28;20114;-64
2021/09/04 02:32:44;;;;;;;8.25;6.90;;;13.40;78.00;;;12.31;79.39;96095.94;4948059;28;20035;-64
2021/09/04 02:35:10;;;;;;;11.13;7.75;;;13.40;78.10;;;12.30;79.41;96089.84;4986709;28;20117;-64
2021/09/04 02:37:35;;;;;;;9.82;7.70;;;13.40;78.20;;;12.29;79.41;96082.13;4950759;28;20090;-64
2021/09/04 02:40:02;;;;;;;8.05;7.15;;;13.40;78.10;;;12.29;79.44;96082.94;4934772;28;20043;-64
2021/09/04 02:42:27;;;;;;;11.68;8.70;;;13.40;78.30;;;12.29;79.24;96076.88;4951334;28;20046;-64
2021/09/04 02:44:53;;;;;;;9.73;7.82;;;13.40;78.30;;;12.26;79.47;96080.72;4940644;28;20058;-64
2021/09/04 02:47:19;;;;;;;9.15;7.93;;;13.30;78.20;;;12.24;79.44;96074.81;4970282;28;20034;-63
2021/09/04 02:49:45;;;;;;;10.57;7.60;;;13.30;78.20;;;12.19;79.98;96072.75;4968734;28;20032;-64
2021/09/04 02:52:10;;;;;;;8.98;7.63;;;13.30;78.10;;;12.16;79.54;96077.63;4953577;28;20133;-64
2021/09/04 02:54:36;;;;;;;8.95;7.30;;;13.30;78.10;;;12.15;80.07;96074.19;4938050;28;20028;-64
2021/09/04 02:57:02;;;;;;;10.05;7.38;;;13.30;78.20;;;12.17;79.65;96069.53;4971195;28;20018;-64
2021/09/04 02:59:28;;;;;;;9.02;7.25;;;13.30;78.10;;;12.15;79.82;96073.38;4966013;28;20043;-65
2021/09/04 03:01:54;;;;;;;8.15;7.30;;;13.30;78.20;;;12.12;80.08;96066.66;4918856;28;20131;-64
2021/09/04 03:04:20;;;;;;;8.57;6.90;;;13.20;78.40;;;12.10;80.12;96073.97;4934711;29;20031;-64
2021/09/04 03:06:45;;;;;;;10.40;7.20;;;13.20;78.50;;;12.08;79.68;96077.81;4935209;28;20046;-64
2021/09/04 03:09:11;;;;;;;12.20;7.72;;;13.20;78.20;;;12.02;79.94;96071.53;4950726;28;20035;-64
2021/09/04 03:11:37;;;;;;;11.00;7.60;;;13.10;78.30;;;12.00;79.45;96070.09;4950722;28;20475;-64
2021/09/04 03:14:02;;;;;;;10.25;7.25;;;13.10;78.10;;;11.96;79.54;96067.03;4970591;28;20305;-64
2021/09/04 03:16:29;;;;;;;10.35;6.90;;;13.00;78.30;;;11.90;79.68;96071.28;4946056;28;20130;-64
2021/09/04 03:18:54;;;;;;;8.40;6.60;;;13.00;78.20;;;11.85;79.96;96068.41;4936367;28;20039;-64
2021/09/04 03:21:20;;;;;;;7.65;6.53;;;13.00;78.00;;;11.80;79.65;96072.66;4953822;28;20062;-64
2021/09/04 03:23:46;;;;;;;8.18;5.90;;;12.90;77.60;;;11.78;80.03;96074.66;4953388;28;20043;-64
2021/09/04 03:26:12;;;;;;;7.93;5.63;;;12.90;77.70;;;11.75;79.24;96075.03;4949731;28;20137;-64
2021/09/04 03:28:37;;;;;;;7.35;6.25;;;12.90;77.70;;;11.72;78.98;96068.31;4948795;28;20438;-64
2021/09/04 03:31:03;;;;;;;8.05;5.78;;;12.90;77.80;;;11.72;79.09;96076.22;4968265;28;20514;-64
2021/09/04 03:33:29;;;;;;;7.57;5.43;;;12.80;77.60;;;11.72;79.50;96083.31;4968761;28;20085;-63
2021/09/04 03:35:55;;;;;;;6.78;5.43;;;12.80;77.50;;;11.69;79.50;96086.34;4947953;28;20125;-67
2021/09/04 03:38:20;;;;;;;7.20;5.50;;;12.80;77.30;;;11.68;79.29;96079.47;4936722;28;20074;-67
2021/09/04 03:40:46;;;;;;;8.02;5.65;;;12.80;77.50;;;11.61;79.81;96082.88;4951755;28;20525;-64
2021/09/04 03:43:12;;;;;;;7.03;5.60;;;12.80;77.60;;;11.60;79.13;96081.25;4935129;28;20450;-64
2021/09/04 03:45:38;;;;;;;6.93;5.45;;;12.80;77.60;;;11.59;79.11;96071.72;4952458;28;20201;-64
2021/09/04 03:48:04;;;;;;;5.88;4.72;;;12.80;77.60;;;11.57;79.52;96073.75;4968183;28;20034;-65
2021/09/04 03:50:29;;;;;;;6.93;5.47;;;12.80;77.40;;;11.55;79.43;96070.50;4969078;28;20089;-64
2021/09/04 03:52:55;;;;;;;7.03;5.13;;;12.70;77.60;;;11.52;79.10;96072.69;4953083;28;20050;-64
2021/09/04 03:55:22;;;;;;;8.52;5.18;;;12.70;77.70;;;11.49;79.76;96076.53;4952628;28;20067;-64
2021/09/04 03:57:47;;;;;;;6.45;5.35;;;12.60;77.80;;;11.47;79.20;96073.28;4969004;28;20031;-64
2021/09/04 04:00:13;;;;;;;6.60;5.25;;;12.60;77.70;;;11.43;79.92;96072.06;4968187;28;20050;-64
2021/09/04 04:02:40;;;;;;;7.55;5.00;;;12.60;77.70;;;11.41;79.03;96079.34;4942561;28;20501;-65
2021/09/04 04:05:06;;;;;;;7.50;4.70;;;12.60;77.70;;;11.40;78.98;96071.63;4952650;28;20035;-64
2021/09/04 04:07:31;;;;;;;7.35;4.93;;;12.60;77.60;;;11.38;79.48;96079.72;4965320;28;20042;-65
2021/09/04 04:09:57;;;;;;;7.43;4.20;;;12.60;77.50;;;11.36;79.12;96076.47;4949484;28;20028;-65
2021/09/04 04:12:23;;;;;;;6.97;4.68;;;12.60;77.60;;;11.34;79.63;96078.50;4939467;28;20470;-64
2021/09/04 04:14:49;;;;;;;5.88;4.43;;;12.60;77.60;;;11.34;79.84;96083.75;4935933;28;20024;-65
2021/09/04 04:17:14;;;;;;;6.00;4.50;;;12.60;77.70;;;11.33;78.95;96077.69;4966632;28;20057;-64
2021/09/04 04:19:40;;;;;;;8.30;4.88;;;12.60;77.50;;;11.31;79.82;96078.84;4953298;28;20094;-64
2021/09/04 04:22:06;;;;;;;5.20;4.22;;;12.50;77.70;;;11.27;79.04;96072.34;4951969;28;20414;-64
2021/09/04 04:24:31;;;;;;;5.03;4.22;;;12.50;77.70;;;11.27;80.21;96074.97;4969097;28;20530;-64
2021/09/04 04:26:57;;;;;;;4.63;4.15;;;12.40;77.70;;;11.25;79.84;96079.63;4942094;29;20074;-65
2021/09/04 04:29:23;;;;;;;5.00;4.18;;;12.40;77.60;;;11.22;78.95;96069.50;4951810;28;20039;-64
2021/09/04 04:31:49;;;;;;;6.60;4.35;;;12.40;77.60;;;11.21;79.71;96070.50;4960236;28;20035;-66
2021/09/04 04:34:14;;;;;;;5.50;4.50;;;12.50;77.50;;;11.16;79.63;96073.72;4963310;28;20063;-65
2021/09/04 04:36:40;;;;;;;10.68;4.95;;;12.40;77.50;;;11.15;79.20;96079.19;4936779;28;20039;-66
2021/09/04 04:39:07;;;;;;;8.23;5.07;;;12.40;77.70;;;11.13;79.86;96081.19;4968750;28;20077;-66
2021/09/04 04:41:32;;;;;;;10.93;6.38;;;12.40;77.90;;;11.11;79.97;96076.13;4968972;28;20034;-66
2021/09/04 04:43:58;;;;;;;10.82;7.18;;;12.40;78.10;;;11.12;79.98;96079.56;4984396;28;20081;-66
2021/09/04 04:46:24;;;;;;;8.45;7.25;;;12.40;78.40;;;11.13;80.27;96081.19;4952308;28;20121;-65
2021/09/04 04:48:49;;;;;;;9.13;6.97;;;12.40;78.70;;;11.12;80.56;96079.56;4968520;28;20043;-66
2021/09/04 04:51:15;;;;;;;8.30;6.85;;;12.40;78.90;;;11.12;80.73;96079.56;4936350;28;20101;-66
2021/09/04 04:53:41;;;;;;;7.30;6.50;;;12.30;78.50;;;11.13;81.00;96075.94;4952364;28;20458;-65
2021/09/04 04:56:07;;;;;;;7.80;6.38;;;12.30;78.70;;;11.10;79.82;96079.75;4929010;28;20432;-65
2021/09/04 04:58:32;;;;;;;8.38;7.03;;;12.40;78.70;;;11.11;80.72;96077.94;4955293;28;20569;-66
2021/09/04 05:00:58;;;;;;;8.07;6.50;;;12.40;78.80;;;11.09;80.27;96074.66;4955245;28;20391;-66
2021/09/04 05:03:24;;;;;;;8.05;5.95;;;12.50;78.80;;;11.10;81.33;96076.31;4971206;28;20043;-66
2021/09/04 05:05:50;;;;;;;8.93;6.30;;;12.50;78.80;;;11.11;81.52;96080.56;4939907;28;20043;-66
2021/09/04 05:08:16;;;;;;;8.50;6.20;;;12.50;78.80;;;11.12;81.17;96079.56;4954972;28;20046;-66
2021/09/04 05:10:42;;;;;;;8.63;6.53;;;12.50;78.80;;;11.14;81.40;96082.81;4939679;28;20035;-66
2021/09/04 05:13:07;;;;;;;9.88;6.80;;;12.50;78.80;;;11.14;81.25;96085.44;4960111;28;20038;-66
2021/09/04 05:15:33;;;;;;;7.70;6.45;;;12.50;78.70;;;11.14;81.90;96082.81;4952266;28;20027;-66
2021/09/04 05:17:59;;;;;;;8.82;6.78;;;12.40;79.00;;;11.15;81.10;96079.19;4925438;28;20026;-66
2021/09/04 05:20:24;;;;;;;20.73;15.60;;;12.50;78.90;;;11.16;80.76;96083.44;4971036;28;20751;-66
2021/09/04 05:22:50;;;;;;;16.92;13.18;;;12.60;79.00;;;11.17;81.81;96085.06;4955295;28;20502;-66
2021/09/04 05:25:16;;;;;;;8.48;6.40;;;12.60;79.00;;;11.17;81.79;96083.25;4972345;28;20138;-66
2021/09/04 05:27:42;;;;;;;7.85;6.60;;;12.60;79.00;;;11.19;81.92;96090.94;4966313;28;20039;-66
2021/09/04 05:30:09;;;;;;;8.57;6.82;;;12.60;79.30;;;11.22;82.28;96087.94;4935715;28;20050;-66
2021/09/04 05:32:35;;;;;;;7.25;6.15;;;12.70;79.30;;;11.26;82.23;96097.06;4935928;29;20372;-66
2021/09/04 05:35:00;;;;;;;9.73;6.53;;;12.80;79.30;;;11.28;82.09;96095.03;4950650;28;20061;-66
2021/09/04 05:37:27;;;;;;;8.93;7.32;;;12.70;79.10;;;11.31;82.01;96095.47;4971226;28;20660;-66
2021/09/04 05:39:53;;;;;;;8.57;6.57;;;12.80;79.20;;;11.36;82.93;96092.28;4969228;28;20034;-66
2021/09/04 05:42:19;;;;;;;8.80;7.00;;;12.80;79.30;;;11.41;82.71;96087.22;4935645;29;20047;-66
2021/09/04 05:44:44;;;;;;;10.32;6.97;;;13.00;79.10;;;11.50;82.87;96099.22;4935948;29;20542;-67
2021/09/04 05:47:10;;;;;;;12.93;9.98;;;13.10;78.70;;;11.55;82.51;96091.56;4951665;28;20043;-66
2021/09/04 05:49:36;;;;;;;12.00;9.85;;;13.10;78.50;;;11.59;82.66;96098.06;4951820;28;20035;-65
2021/09/04 05:52:02;;;;;;;8.77;7.80;;;13.20;78.30;;;11.66;82.51;96093.66;4919138;28;20125;-66
2021/09/04 05:54:28;;;;;;;8.30;6.50;;;13.40;78.00;;;11.72;82.52;96097.31;4957677;28;20109;-65
2021/09/04 05:56:53;;;;;;;9.43;7.20;;;13.40;77.90;;;11.78;82.80;96104.50;4950365;28;20404;-65
2021/09/04 05:59:19;;;;;;;8.10;6.97;;;13.50;77.90;;;11.86;82.40;96103.50;4954636;28;20441;-66
2021/09/04 06:01:45;;;;;;;9.05;6.85;;;13.60;78.00;;;11.92;83.26;96100.88;4967517;28;20507;-66
2021/09/04 06:04:11;;;;;;;10.82;7.10;;;13.60;77.90;;;11.99;83.08;96108.00;4949670;28;20677;-66
2021/09/04 06:06:36;;;;;;;8.30;6.80;;;13.70;77.80;;;12.04;82.90;96092.41;4938751;28;20030;-67
2021/09/04 06:09:03;;;;;;;12.13;8.38;;;13.80;77.80;;;12.08;83.03;96097.09;4954625;28;20418;-66
2021/09/04 06:11:29;;;;;;;18.05;14.93;;;13.80;78.10;;;12.15;82.66;96097.91;4953932;28;20038;-66
2021/09/04 06:13:59;;;;;;;12.63;9.98;;;13.90;78.00;;;12.25;83.55;96098.38;4937798;28;20035;-67
2021/09/04 06:16:24;;;;;;;11.75;8.40;;;14.00;78.10;;;12.34;83.14;96092.91;4953719;28;20406;-66
2021/09/04 06:18:50;;;;;;;11.20;7.68;;;14.10;78.10;;;12.43;83.51;96094.31;4919977;29;20038;-64
2021/09/04 06:21:16;;;;;;;10.93;9.07;;;14.20;78.10;;;12.50;82.71;96097.81;4940243;29;20574;-66
2021/09/04 06:23:42;;;;;;;15.00;10.32;;;14.30;77.90;;;12.57;83.67;96096.78;4935150;29;20039;-65
2021/09/04 06:26:08;;;;;;;11.45;8.77;;;14.30;78.40;;;12.65;83.50;96100.22;4950123;28;20105;-65
2021/09/04 06:28:33;;;;;;;11.98;9.23;;;14.40;78.30;;;12.72;83.43;96096.59;4927096;29;20455;-65
2021/09/04 06:30:59;;;;;;;11.70;9.50;;;14.50;78.10;;;12.81;83.45;96099.84;4920517;29;20051;-65
2021/09/04 06:33:25;;;;;;;11.02;9.05;;;14.60;77.90;;;12.88;83.08;96098.81;4936173;28;20110;-65
2021/09/04 06:35:51;;;;;;;12.38;9.38;;;14.60;77.80;;;12.97;83.66;96101.28;4951757;28;20537;-64
2021/09/04 06:38:16;;;;;;;12.40;10.50;;;14.70;78.30;;;13.04;83.77;96097.63;4946979;28;20074;-64
2021/09/04 06:40:42;;;;;;;13.10;11.45;;;14.80;78.10;;;13.11;83.26;96093.13;4969908;28;20113;-64
2021/09/04 06:43:08;;;;;;;15.68;11.20;;;14.90;78.30;;;13.21;83.27;96095.41;4953318;28;20042;-65
2021/09/04 06:45:33;;;;;;;13.00;10.73;;;15.00;78.20;;;13.30;83.97;96096.81;4966462;28;20071;-65
2021/09/04 06:47:59;;;;;;;36.75;28.20;;;15.10;78.20;;;13.42;83.39;96103.09;4936116;28;20118;-63
2021/09/04 06:50:25;;;;;;;28.60;23.42;;;15.30;77.60;;;13.51;83.44;96102.88;4969520;28;20039;-63
2021/09/04 06:52:51;;;;;;;13.40;11.95;;;15.40;77.40;;;13.61;83.14;96096.16;4968842;28;20059;-61
2021/09/04 06:55:17;;;;;;;14.40;11.05;;;15.50;77.60;;;13.73;84.17;96101.59;4937327;28;20038;-62
2021/09/04 06:57:43;;;;;;;14.90;11.45;;;15.60;77.50;;;13.79;83.70;96106.84;4961671;28;20043;-62
2021/09/04 07:00:10;;;;;;;24.23;19.30;;;15.60;77.00;;;13.95;82.79;96107.41;4953449;28;20040;-64
2021/09/04 07:02:35;;;;;;;24.13;20.20;;;15.90;77.00;;;14.12;83.57;96105.09;4940294;28;20031;-63
2021/09/04 07:05:01;;;;;;;14.50;12.13;;;16.20;77.00;;;14.30;82.68;96097.28;4936483;28;20089;-63
2021/09/04 07:07:27;;;;;;;17.90;11.80;;;16.40;75.70;;;14.49;83.37;96104.34;4953126;28;20502;-65
2021/09/04 07:09:53;;;;;;;17.92;11.82;;;16.70;75.60;;;14.69;83.62;96102.34;4933570;28;20031;-63
2021/09/04 07:12:18;;;;;;;15.38;11.63;;;16.90;75.70;;;14.91;82.13;96107.28;4949336;28;20392;-64
2021/09/04 07:14:44;;;;;;;13.90;11.02;;;17.10;74.70;;;15.10;82.47;96106.31;4951997;28;20023;-66
2021/09/04 07:17:10;;;;;;;16.88;12.55;;;17.40;74.50;;;15.34;81.82;96107.31;4945510;28;20093;-65
2021/09/04 07:19:36;;;;;;;16.15;11.35;;;17.70;73.60;;;15.60;81.31;96114.22;4954210;28;20431;-65
2021/09/04 07:22:01;;;;;;;13.98;11.32;;;18.10;72.20;;;15.86;81.69;96116.63;4984401;28;20492;-64
2021/09/04 07:24:27;;;;;;;15.68;11.85;;;18.40;70.70;;;16.13;80.15;96113.66;4984824;28;20050;-64
2021/09/04 07:26:53;;;;;;;14.40;12.85;;;18.70;69.60;;;16.36;80.03;96119.06;4968662;28;20485;-64
2021/09/04 07:29:19;;;;;;;15.13;11.82;;;19.00;68.30;;;16.64;78.72;96115.00;4968159;28;20471;-64
2021/09/04 07:31:44;;;;;;;17.73;12.82;;;19.40;67.20;;;16.91;78.40;96113.59;4965632;28;20049;-64
2021/09/04 07:34:10;;;;;;;16.60;12.98;;;19.60;66.50;;;17.15;77.76;96112.59;4940561;28;20039;-65
2021/09/04 07:36:36;;;;;;;15.20;12.27;;;20.00;66.20;;;17.43;77.50;96117.25;4968382;28;20057;-64
2021/09/04 07:39:02;;;;;;;17.30;11.05;;;20.30;65.40;;;17.72;77.36;96112.06;4967615;28;20090;-64
2021/09/04 07:41:28;;;;;;;18.85;10.88;;;20.60;64.80;;;17.99;75.89;96115.03;4952660;28;20039;-64
2021/09/04 07:43:53;;;;;;;15.68;10.65;;;20.90;62.90;;;18.27;75.26;96112.38;4946754;28;20454;-67
2021/09/04 07:46:19;;;;;;;11.68;9.40;;;21.20;61.90;;;18.53;73.91;96112.88;4960006;28;20438;-67
2021/09/04 07:48:45;;;;;;;13.20;10.75;;;21.50;60.60;;;18.79;73.39;96112.34;4935178;29;20122;-67
2021/09/04 07:51:11;;;;;;;10.48;9.02;;;21.80;60.00;;;19.07;72.45;96113.31;4933681;29;20039;-67
2021/09/04 07:53:36;;;;;;;12.57;9.43;;;22.10;58.70;;;19.33;72.25;96118.00;4944933;28;20070;-67
2021/09/04 07:56:02;;;;;;;12.50;9.90;;;22.40;57.40;;;19.62;72.07;96112.56;4968272;28;20039;-67
2021/09/04 07:58:28;;;;;;;11.60;9.02;;;22.70;57.20;;;19.86;71.52;96119.31;4951830;28;20101;-67
2021/09/04 08:00:54;;;;;;;12.50;9.70;;;22.90;56.50;;;20.13;69.41;96122.88;4949917;28;20054;-67
2021/09/04 08:03:19;;;;;;;13.05;9.65;;;23.10;56.00;;;20.35;69.02;96124.72;4962069;28;20038;-67
2021/09/04 08:05:45;;;;;;;11.90;9.38;;;23.40;55.80;;;20.55;68.53;96122.31;4941566;28;20498;-67
2021/09/04 08:08:11;;;;;;;12.50;9.10;;;23.50;54.70;;;20.72;68.72;96125.72;4932531;28;20082;-66
2021/09/04 08:10:39;;;;;;;12.40;8.73;;;23.60;55.40;;;20.90;68.09;96121.06;4918549;29;20071;-66
2021/09/04 08:13:05;;;;;;;15.52;9.32;;;24.00;54.40;;;21.14;67.38;96125.03;4934454;28;20413;-65
2021/09/04 08:15:31;;;;;;;11.68;8.50;;;24.30;54.60;;;21.39;66.91;96125.25;4935247;29;20122;-65
2021/09/04 08:17:56;;;;;;;13.35;8.75;;;24.50;52.50;;;21.63;65.97;96124.88;4948553;28;20479;-65
2021/09/04 08:20:22;;;;;;;9.77;8.15;;;24.70;51.50;;;21.86;65.85;96124.50;4964498;28;20046;-66
2021/09/04 08:22:48;;;;;;;13.90;8.25;;;24.90;52.60;;;22.11;65.10;96126.53;4951102;28;20077;-65
2021/09/04 08:25:14;;;;;;;12.48;9.57;;;25.10;51.20;;;22.31;64.48;96121.25;4957112;28;20499;-65
2021/09/04 08:27:39;;;;;;;12.27;10.63;;;25.30;50.90;;;22.49;64.02;96127.22;4936676;28;20073;-65
2021/09/04 08:30:06;;;;;;;13.35;9.73;;;25.50;50.80;;;22.76;63.60;96118.97;4962642;28;20039;-66
2021/09/04 08:32:31;;;;;;;19.20;13.23;;;25.80;50.80;;;23.00;62.84;96122.78;4956897;28;20554;-65
2021/09/04 08:34:57;;;;;;;15.15;10.05;;;26.10;50.50;;;23.22;62.94;96126.03;4964464;28;20046;-66
2021/09/04 08:37:23;;;;;;;15.23;11.30;;;26.20;49.80;;;23.46;62.08;96120.09;4940631;28;20050;-65
2021/09/04 08:39:49;;;;;;;11.32;9.85;;;26.40;48.50;;;23.67;61.36;96121.72;4945592;28;20067;-66
2021/09/04 08:42:14;;;;;;;11.35;8.15;;;26.60;47.60;;;23.87;59.95;96128.13;4951842;28;20059;-65
2021/09/04 08:44:40;;;;;;;8.60;7.25;;;26.90;46.40;;;24.09;59.25;96124.06;4955741;28;20073;-66
2021/09/04 08:47:06;;;;;;;9.98;7.95;;;27.00;44.70;;;24.28;58.08;96126.97;4963305;28;20047;-65
2021/09/04 08:49:34;;;;;;;12.13;7.68;;;27.10;44.60;;;24.52;56.32;96132.50;4947115;28;20077;-66
2021/09/04 08:51:59;;;;;;;9.20;7.05;;;27.30;44.70;;;24.74;56.79;96129.44;4940008;28;20050;-66
2021/09/04 08:54:25;;;;;;;12.60;7.47;;;27.50;43.30;;;24.95;56.01;96130.94;4960199;28;20046;-66
2021/09/04 08:56:51;;;;;;;8.23;7.10;;;27.70;42.80;;;25.22;54.69;96132.38;4944452;28;20391;-66
2021/09/04 08:59:17;;;;;;;8.05;6.47;;;28.00;41.90;;;25.39;53.86;96134.69;4951961;28;20519;-65
2021/09/04 09:01:46;;;;;;;6.78;5.70;;;28.00;41.90;;;25.64;53.24;96126.38;4970754;28;20522;-66
2021/09/04 09:04:17;;;;;;;9.25;6.22;;;28.40;42.00;;;25.92;49.71;96124.78;4951599;28;20036;-66
2021/09/04 09:06:43;;;;;;;9.15;5.78;;;28.60;40.50;;;26.20;52.47;96121.22;4936084;29;20040;-69
2021/09/04 09:09:23;;;;;;;7.88;6.00;;;28.90;40.70;;;26.48;46.64;96130.38;4951701;28;20362;-65
2021/09/04 09:11:51;;;;;;;7.32;5.90;;;29.10;38.40;;;26.72;49.55;96124.94;4936357;29;20038;-66
2021/09/04 09:14:17;;;;;;;12.02;9.63;;;29.30;39.30;;;26.93;50.39;96127.31;4930790;28;20047;-66
2021/09/04 09:16:55;;;;;;;8.80;7.90;;;29.50;38.90;;;27.16;45.45;96129.19;4969090;28;20549;-66
2021/09/04 09:19:41;;;;;;;7.20;5.80;;;29.70;37.90;;;27.28;44.89;96124.09;4970902;28;20058;-66
2021/09/04 09:22:14;;;;;;;7.97;5.82;;;29.50;38.00;;;27.46;45.57;96123.28;4954808;28;20155;-66
2021/09/04 09:24:40;;;;;;;9.48;6.20;;;29.90;38.70;;;27.68;48.01;96129.97;4958357;28;20049;-66
2021/09/04 09:27:05;;;;;;;7.20;6.13;;;30.10;38.20;;;27.87;46.89;96128.00;4957597;28;20130;-66
2021/09/04 09:29:35;;;;;;;8.35;6.18;;;30.20;36.70;;;28.02;44.28;96124.19;4954761;28;20207;-66
2021/09/04 09:32:08;;;;;;;29.65;23.38;;;30.40;37.00;;;28.17;46.04;96121.22;4941909;28;20039;-66
2021/09/04 09:34:37;;;;;;;9.77;7.10;;;30.60;36.50;;;28.42;43.50;96121.84;4978916;28;20042;-65
2021/09/04 09:37:03;;;;;;;7.32;5.43;;;30.90;36.40;;;28.59;44.51;96128.22;4967905;28;20054;-65
2021/09/04 09:39:34;;;;;;;8.00;5.55;;;31.10;35.20;;;28.80;43.67;96133.22;4936927;28;20174;-66
2021/09/04 09:42:01;;;;;;;6.35;5.20;;;31.30;35.10;;;29.01;43.60;96125.47;4933441;28;20120;-66
2021/09/04 09:44:30;;;;;;;6.35;5.03;;;31.60;35.40;;;29.24;42.37;96121.69;4954855;28;20548;-66
2021/09/04 09:47:03;;;;;;;9.65;5.65;;;31.80;34.90;;;29.45;41.05;96119.31;4936013;29;20046;-65
2021/09/04 09:49:43;;;;;;;8.70;5.40;;;32.00;35.00;;;29.65;39.76;96117.97;4952290;28;20522;-66
2021/09/04 09:52:16;;;;;;;8.40;5.28;;;32.20;33.50;;;29.80;39.42;96118.38;4930819;28;20046;-65
2021/09/04 09:54:44;;;;;;;13.77;11.70;;;32.40;33.00;;;29.97;40.85;96120.38;4932235;28;20069;-65
2021/09/04 09:57:11;;;;;;;10.85;8.65;;;32.50;32.90;;;30.11;41.07;96109.47;4970566;28;20507;-65
2021/09/04 09:59:38;;;;;;;10.07;6.53;;;32.70;32.70;;;30.23;39.36;96106.94;4961599;28;20038;-66
2021/09/04 10:02:09;;;;;;;7.28;5.60;;;32.90;31.60;;;30.43;39.13;96097.44;4946983;28;20533;-66
2021/09/04 10:04:36;;;;;;;8.55;5.55;;;33.00;33.60;;;30.65;39.66;96099.25;4939182;28;20056;-65
2021/09/04 10:07:04;;;;;;;5.90;5.13;;;33.30;31.90;;;31.03;39.38;96105.69;4951897;28;20133;-66
2021/09/04 10:09:30;;;;;;;6.50;4.82;;;33.60;30.40;;;31.41;38.36;96098.81;4954190;28;20039;-66
2021/09/04 10:11:56;;;;;;;8.38;5.25;;;33.90;30.00;;;31.81;37.14;96094.75;4935655;28;20070;-65